sensor_id;sensor_type;location;lat;lon;timestamp;pressure;altitude;pressure_sealevel;temperature;humidity
55932;BME280;41837;55.700;37.984;2022-11-15T00:00:08;100706.03;;;-0.27;57.04
55932;BME280;41837;55.700;37.984;2022-11-15T00:02:54;100699.78;;;-0.43;56.57
55932;BME280;41837;55.700;37.984;2022-11-15T00:05:39;100698.06;;;-0.44;56.14
55932;BME280;41837;55.700;37.984;2022-11-15T00:08:29;100693.81;;;-0.44;56.50
55932;BME280;41837;55.700;37.984;2022-11-15T00:11:14;100694.03;;;-0.30;56.83
55932;BME280;41837;55.700;37.984;2022-11-15T00:14:00;100703.94;;;-0.51;56.70
55932;BME280;41837;55.700;37.984;2022-11-15T00:16:47;100693.47;;;-0.62;57.08
55932;BME280;41837;55.700;37.984;2022-11-15T00:19:31;100703.19;;;-0.44;57.40
55932;BME280;41837;55.700;37.984;2022-11-15T00:22:18;100696.00;;;-0.65;56.90
55932;BME280;41837;55.700;37.984;2022-11-15T00:25:03;100697.13;;;-0.49;57.02
55932;BME280;41837;55.700;37.984;2022-11-15T00:27:48;100694.78;;;-0.37;56.77
55932;BME280;41837;55.700;37.984;2022-11-15T00:30:33;100694.84;;;-0.34;56.50
55932;BME280;41837;55.700;37.984;2022-11-15T00:33:19;100689.00;;;-0.22;56.89
55932;BME280;41837;55.700;37.984;2022-11-15T00:36:08;100688.47;;;-0.56;56.55
55932;BME280;41837;55.700;37.984;2022-11-15T00:38:54;100685.50;;;-0.29;57.30
55932;BME280;41837;55.700;37.984;2022-11-15T00:41:39;100680.06;;;-0.44;57.13
55932;BME280;41837;55.700;37.984;2022-11-15T00:44:24;100682.03;;;-0.29;57.69
55932;BME280;41837;55.700;37.984;2022-11-15T00:47:10;100678.91;;;-0.63;57.82
55932;BME280;41837;55.700;37.984;2022-11-15T00:49:55;100671.25;;;-0.60;57.54
55932;BME280;41837;55.700;37.984;2022-11-15T00:52:40;100675.09;;;-0.35;57.51
55932;BME280;41837;55.700;37.984;2022-11-15T00:55:25;100675.84;;;-0.42;57.98
55932;BME280;41837;55.700;37.984;2022-11-15T00:58:11;100675.06;;;-0.38;57.94
55932;BME280;41837;55.700;37.984;2022-11-15T01:00:55;100672.16;;;-0.57;58.54
55932;BME280;41837;55.700;37.984;2022-11-15T01:03:41;100657.06;;;-0.38;58.55
55932;BME280;41837;55.700;37.984;2022-11-15T01:06:26;100656.00;;;-0.49;58.46
55932;BME280;41837;55.700;37.984;2022-11-15T01:09:11;100652.84;;;-0.34;58.63
55932;BME280;41837;55.700;37.984;2022-11-15T01:11:58;100649.13;;;-0.52;59.23
55932;BME280;41837;55.700;37.984;2022-11-15T01:14:44;100651.53;;;-0.61;59.63
55932;BME280;41837;55.700;37.984;2022-11-15T01:17:30;100656.75;;;-0.57;58.41
55932;BME280;41837;55.700;37.984;2022-11-15T01:20:14;100650.91;;;-0.48;58.82
55932;BME280;41837;55.700;37.984;2022-11-15T01:22:59;100648.25;;;-0.54;58.95
55932;BME280;41837;55.700;37.984;2022-11-15T01:25:43;100642.03;;;-0.67;58.89
55932;BME280;41837;55.700;37.984;2022-11-15T01:28:31;100650.06;;;-0.47;59.09
55932;BME280;41837;55.700;37.984;2022-11-15T01:31:19;100648.88;;;-0.67;58.86
55932;BME280;41837;55.700;37.984;2022-11-15T01:34:05;100642.16;;;-0.61;58.62
55932;BME280;41837;55.700;37.984;2022-11-15T01:36:50;100637.94;;;-0.57;59.12
55932;BME280;41837;55.700;37.984;2022-11-15T01:39:35;100636.22;;;-0.57;59.40
55932;BME280;41837;55.700;37.984;2022-11-15T01:42:21;100626.19;;;-0.41;58.04
55932;BME280;41837;55.700;37.984;2022-11-15T01:45:13;100622.69;;;-0.46;58.41
55932;BME280;41837;55.700;37.984;2022-11-15T01:47:59;100614.19;;;-0.42;58.14
55932;BME280;41837;55.700;37.984;2022-11-15T01:50:43;100630.28;;;-0.54;59.12
55932;BME280;41837;55.700;37.984;2022-11-15T01:53:31;100627.53;;;-0.63;58.60
55932;BME280;41837;55.700;37.984;2022-11-15T01:56:21;100628.47;;;-0.58;59.22
55932;BME280;41837;55.700;37.984;2022-11-15T01:59:08;100624.13;;;-0.64;59.18
55932;BME280;41837;55.700;37.984;2022-11-15T02:01:55;100619.91;;;-0.60;59.79
55932;BME280;41837;55.700;37.984;2022-11-15T02:04:43;100624.91;;;-0.66;58.50
55932;BME280;41837;55.700;37.984;2022-11-15T02:07:30;100620.91;;;-0.50;58.40
55932;BME280;41837;55.700;37.984;2022-11-15T02:10:22;100617.22;;;-0.68;58.16
55932;BME280;41837;55.700;37.984;2022-11-15T02:13:08;100619.06;;;-0.59;58.53
55932;BME280;41837;55.700;37.984;2022-11-15T02:25:30;100607.78;;;-0.69;58.34
55932;BME280;41837;55.700;37.984;2022-11-15T02:28:44;100618.53;;;-0.88;58.53
55932;BME280;41837;55.700;37.984;2022-11-15T02:32:11;100613.59;;;-0.79;57.88
55932;BME280;41837;55.700;37.984;2022-11-15T02:35:17;100611.00;;;-0.81;59.29
55932;BME280;41837;55.700;37.984;2022-11-15T02:38:17;100611.91;;;-0.77;59.13
55932;BME280;41837;55.700;37.984;2022-11-15T02:41:07;100601.56;;;-0.80;57.71
55932;BME280;41837;55.700;37.984;2022-11-15T02:43:59;100595.00;;;-0.66;58.33
55932;BME280;41837;55.700;37.984;2022-11-15T02:46:58;100599.91;;;-0.78;58.58
55932;BME280;41837;55.700;37.984;2022-11-15T02:50:21;100603.31;;;-0.79;58.34
55932;BME280;41837;55.700;37.984;2022-11-15T02:53:09;100618.94;;;-0.67;58.65
55932;BME280;41837;55.700;37.984;2022-11-15T02:55:55;100604.31;;;-0.71;59.16
55932;BME280;41837;55.700;37.984;2022-11-15T02:59:24;100594.03;;;-0.72;59.34
55932;BME280;41837;55.700;37.984;2022-11-15T03:05:37;100585.41;;;-0.76;58.66
55932;BME280;41837;55.700;37.984;2022-11-15T03:08:59;100569.91;;;-0.81;58.91
55932;BME280;41837;55.700;37.984;2022-11-15T03:11:47;100575.09;;;-0.78;59.12
55932;BME280;41837;55.700;37.984;2022-11-15T03:14:57;100585.63;;;-0.62;58.31
55932;BME280;41837;55.700;37.984;2022-11-15T03:17:59;100587.84;;;-0.82;60.04
55932;BME280;41837;55.700;37.984;2022-11-15T03:20:46;100571.72;;;-0.75;58.82
55932;BME280;41837;55.700;37.984;2022-11-15T03:23:33;100564.91;;;-0.73;59.35
55932;BME280;41837;55.700;37.984;2022-11-15T03:26:21;100570.19;;;-0.64;59.24
55932;BME280;41837;55.700;37.984;2022-11-15T03:29:16;100567.53;;;-0.68;58.74
55932;BME280;41837;55.700;37.984;2022-11-15T03:32:16;100574.16;;;-0.83;59.22
55932;BME280;41837;55.700;37.984;2022-11-15T03:35:23;100569.31;;;-0.66;59.76
55932;BME280;41837;55.700;37.984;2022-11-15T03:41:17;100575.09;;;-0.79;59.68
55932;BME280;41837;55.700;37.984;2022-11-15T03:47:21;100580.16;;;-0.82;60.13
55932;BME280;41837;55.700;37.984;2022-11-15T03:50:13;100585.31;;;-0.81;60.48
55932;BME280;41837;55.700;37.984;2022-11-15T03:53:01;100583.69;;;-0.76;60.01
55932;BME280;41837;55.700;37.984;2022-11-15T03:55:46;100579.03;;;-1.00;60.62
55932;BME280;41837;55.700;37.984;2022-11-15T03:58:30;100587.72;;;-0.91;60.54
55932;BME280;41837;55.700;37.984;2022-11-15T04:01:15;100579.22;;;-0.87;61.48
55932;BME280;41837;55.700;37.984;2022-11-15T04:04:00;100575.59;;;-0.99;61.11
55932;BME280;41837;55.700;37.984;2022-11-15T04:06:45;100573.09;;;-0.96;60.79
55932;BME280;41837;55.700;37.984;2022-11-15T04:09:31;100566.41;;;-0.86;60.30
55932;BME280;41837;55.700;37.984;2022-11-15T04:12:16;100570.81;;;-0.79;61.66
55932;BME280;41837;55.700;37.984;2022-11-15T04:15:19;100574.91;;;-0.88;61.69
55932;BME280;41837;55.700;37.984;2022-11-15T04:18:04;100564.72;;;-0.84;61.01
55932;BME280;41837;55.700;37.984;2022-11-15T04:20:49;100557.28;;;-0.67;61.35
55932;BME280;41837;55.700;37.984;2022-11-15T04:23:53;100553.06;;;-0.63;60.93
55932;BME280;41837;55.700;37.984;2022-11-15T04:26:56;100559.31;;;-1.01;60.52
55932;BME280;41837;55.700;37.984;2022-11-15T04:29:41;100551.94;;;-0.81;60.67
55932;BME280;41837;55.700;37.984;2022-11-15T04:32:26;100556.91;;;-0.91;60.31
55932;BME280;41837;55.700;37.984;2022-11-15T04:35:11;100556.00;;;-0.94;60.68
55932;BME280;41837;55.700;37.984;2022-11-15T04:37:56;100561.78;;;-1.05;60.44
55932;BME280;41837;55.700;37.984;2022-11-15T04:40:41;100565.13;;;-1.11;60.41
55932;BME280;41837;55.700;37.984;2022-11-15T04:43:27;100555.19;;;-0.92;59.41
55932;BME280;41837;55.700;37.984;2022-11-15T04:46:11;100560.16;;;-1.02;60.19
55932;BME280;41837;55.700;37.984;2022-11-15T04:48:56;100548.94;;;-1.08;59.91
55932;BME280;41837;55.700;37.984;2022-11-15T04:51:41;100558.44;;;-1.03;60.10
55932;BME280;41837;55.700;37.984;2022-11-15T04:54:27;100545.59;;;-1.03;60.29
55932;BME280;41837;55.700;37.984;2022-11-15T04:57:12;100538.06;;;-0.92;59.97
55932;BME280;41837;55.700;37.984;2022-11-15T04:59:57;100540.44;;;-1.04;60.10
55932;BME280;41837;55.700;37.984;2022-11-15T05:02:41;100537.72;;;-0.60;58.97
55932;BME280;41837;55.700;37.984;2022-11-15T05:05:44;100526.50;;;-1.20;59.65
55932;BME280;41837;55.700;37.984;2022-11-15T05:08:30;100539.59;;;-1.03;60.30
55932;BME280;41837;55.700;37.984;2022-11-15T05:11:15;100542.06;;;-1.09;59.70
55932;BME280;41837;55.700;37.984;2022-11-15T05:13:59;100539.88;;;-0.86;58.92
55932;BME280;41837;55.700;37.984;2022-11-15T05:16:44;100543.84;;;-1.04;59.33
55932;BME280;41837;55.700;37.984;2022-11-15T05:19:29;100541.97;;;-1.14;59.58
55932;BME280;41837;55.700;37.984;2022-11-15T05:22:15;100530.97;;;-1.08;59.55
55932;BME280;41837;55.700;37.984;2022-11-15T05:25:00;100536.31;;;-0.95;59.16
55932;BME280;41837;55.700;37.984;2022-11-15T05:27:45;100534.41;;;-1.08;59.56
55932;BME280;41837;55.700;37.984;2022-11-15T05:30:30;100536.47;;;-0.85;59.82
55932;BME280;41837;55.700;37.984;2022-11-15T05:33:15;100532.16;;;-0.88;59.52
55932;BME280;41837;55.700;37.984;2022-11-15T05:38:50;100526.94;;;-0.92;59.51
55932;BME280;41837;55.700;37.984;2022-11-15T05:41:43;100525.28;;;-0.89;60.46
55932;BME280;41837;55.700;37.984;2022-11-15T05:44:30;100521.81;;;-0.92;60.44
55932;BME280;41837;55.700;37.984;2022-11-15T05:47:21;100524.31;;;-0.96;60.00
55932;BME280;41837;55.700;37.984;2022-11-15T05:50:11;100518.38;;;-0.93;60.28
55932;BME280;41837;55.700;37.984;2022-11-15T05:52:57;100513.97;;;-1.02;60.30
55932;BME280;41837;55.700;37.984;2022-11-15T05:55:42;100515.16;;;-0.81;60.61
55932;BME280;41837;55.700;37.984;2022-11-15T05:58:27;100503.97;;;-0.83;60.57
55932;BME280;41837;55.700;37.984;2022-11-15T06:01:12;100506.72;;;-0.72;60.59
55932;BME280;41837;55.700;37.984;2022-11-15T06:03:57;100512.69;;;-0.73;60.13
55932;BME280;41837;55.700;37.984;2022-11-15T06:06:43;100509.25;;;-0.74;60.21
55932;BME280;41837;55.700;37.984;2022-11-15T06:09:28;100505.88;;;-0.70;60.37
55932;BME280;41837;55.700;37.984;2022-11-15T06:12:13;100501.81;;;-0.57;59.92
55932;BME280;41837;55.700;37.984;2022-11-15T06:14:58;100508.44;;;-0.73;60.19
55932;BME280;41837;55.700;37.984;2022-11-15T06:17:44;100505.06;;;-0.69;59.07
55932;BME280;41837;55.700;37.984;2022-11-15T06:20:30;100502.94;;;-0.38;58.72
55932;BME280;41837;55.700;37.984;2022-11-15T06:23:15;100501.03;;;-0.50;58.01
55932;BME280;41837;55.700;37.984;2022-11-15T06:26:01;100495.16;;;-0.41;59.24
55932;BME280;41837;55.700;37.984;2022-11-15T06:28:47;100492.53;;;-0.47;59.34
55932;BME280;41837;55.700;37.984;2022-11-15T06:31:33;100487.41;;;-0.47;59.04
55932;BME280;41837;55.700;37.984;2022-11-15T06:34:18;100482.41;;;-0.36;59.51
55932;BME280;41837;55.700;37.984;2022-11-15T06:37:03;100489.84;;;-0.55;59.00
55932;BME280;41837;55.700;37.984;2022-11-15T06:39:48;100490.03;;;-0.41;58.94
55932;BME280;41837;55.700;37.984;2022-11-15T06:42:33;100478.78;;;-0.52;58.90
55932;BME280;41837;55.700;37.984;2022-11-15T06:45:18;100480.16;;;-0.10;57.59
55932;BME280;41837;55.700;37.984;2022-11-15T06:48:03;100479.16;;;-0.22;59.21
55932;BME280;41837;55.700;37.984;2022-11-15T06:50:59;100485.97;;;-0.27;58.37
55932;BME280;41837;55.700;37.984;2022-11-15T06:53:44;100478.94;;;-0.40;58.07
55932;BME280;41837;55.700;37.984;2022-11-15T06:56:29;100477.84;;;0.11;57.92
55932;BME280;41837;55.700;37.984;2022-11-15T06:59:13;100473.34;;;-0.08;58.17
55932;BME280;41837;55.700;37.984;2022-11-15T07:01:58;100479.41;;;-0.02;59.95
55932;BME280;41837;55.700;37.984;2022-11-15T07:04:43;100477.56;;;-0.13;58.17
55932;BME280;41837;55.700;37.984;2022-11-15T07:07:29;100470.03;;;0.02;57.31
55932;BME280;41837;55.700;37.984;2022-11-15T07:10:13;100469.00;;;-0.11;57.07
55932;BME280;41837;55.700;37.984;2022-11-15T07:12:59;100470.72;;;-0.13;56.52
55932;BME280;41837;55.700;37.984;2022-11-15T07:15:44;100460.13;;;-0.36;57.20
55932;BME280;41837;55.700;37.984;2022-11-15T07:18:29;100452.84;;;-0.01;57.47
55932;BME280;41837;55.700;37.984;2022-11-15T07:21:14;100452.88;;;0.01;57.69
55932;BME280;41837;55.700;37.984;2022-11-15T07:23:59;100450.34;;;0.06;59.38
55932;BME280;41837;55.700;37.984;2022-11-15T07:26:44;100448.38;;;-0.15;57.48
55932;BME280;41837;55.700;37.984;2022-11-15T07:29:29;100444.41;;;0.11;56.78
55932;BME280;41837;55.700;37.984;2022-11-15T07:32:14;100446.00;;;-0.02;56.72
55932;BME280;41837;55.700;37.984;2022-11-15T07:34:59;100450.44;;;0.15;57.05
55932;BME280;41837;55.700;37.984;2022-11-15T07:37:44;100435.09;;;0.21;56.70
55932;BME280;41837;55.700;37.984;2022-11-15T07:40:36;100446.16;;;0.12;56.66
55932;BME280;41837;55.700;37.984;2022-11-15T07:43:22;100443.47;;;0.03;57.68
55932;BME280;41837;55.700;37.984;2022-11-15T07:46:08;100436.81;;;0.21;57.30
55932;BME280;41837;55.700;37.984;2022-11-15T07:48:54;100431.50;;;0.05;58.39
55932;BME280;41837;55.700;37.984;2022-11-15T07:51:39;100428.03;;;0.00;58.15
55932;BME280;41837;55.700;37.984;2022-11-15T07:54:24;100423.56;;;-0.15;57.75
55932;BME280;41837;55.700;37.984;2022-11-15T07:57:09;100421.78;;;-0.21;60.02
55932;BME280;41837;55.700;37.984;2022-11-15T07:59:53;100422.94;;;0.06;60.53
55932;BME280;41837;55.700;37.984;2022-11-15T08:02:38;100429.66;;;-0.07;58.39
55932;BME280;41837;55.700;37.984;2022-11-15T08:05:23;100424.22;;;-0.33;59.25
55932;BME280;41837;55.700;37.984;2022-11-15T08:08:09;100423.63;;;-0.12;58.78
55932;BME280;41837;55.700;37.984;2022-11-15T08:10:57;100414.16;;;-0.14;58.56
55932;BME280;41837;55.700;37.984;2022-11-15T08:13:42;100410.84;;;-0.04;58.27
55932;BME280;41837;55.700;37.984;2022-11-15T08:16:27;100412.25;;;-0.29;60.41
55932;BME280;41837;55.700;37.984;2022-11-15T08:19:12;100403.91;;;-0.11;59.70
55932;BME280;41837;55.700;37.984;2022-11-15T08:21:57;100420.31;;;0.02;59.58
55932;BME280;41837;55.700;37.984;2022-11-15T08:24:41;100415.94;;;-0.06;60.03
55932;BME280;41837;55.700;37.984;2022-11-15T08:27:28;100414.72;;;-0.40;58.44
55932;BME280;41837;55.700;37.984;2022-11-15T08:30:13;100425.72;;;-0.49;59.12
55932;BME280;41837;55.700;37.984;2022-11-15T08:33:00;100420.81;;;-0.32;59.80
55932;BME280;41837;55.700;37.984;2022-11-15T08:35:46;100414.28;;;-0.02;58.86
55932;BME280;41837;55.700;37.984;2022-11-15T08:38:31;100411.78;;;-0.68;59.71
55932;BME280;41837;55.700;37.984;2022-11-15T08:41:19;100398.56;;;-0.30;59.79
55932;BME280;41837;55.700;37.984;2022-11-15T08:44:09;100400.06;;;-0.47;59.25
55932;BME280;41837;55.700;37.984;2022-11-15T08:46:53;100399.94;;;-0.57;59.11
55932;BME280;41837;55.700;37.984;2022-11-15T08:49:38;100398.31;;;-0.50;59.51
55932;BME280;41837;55.700;37.984;2022-11-15T08:52:23;100392.09;;;-0.67;59.00
55932;BME280;41837;55.700;37.984;2022-11-15T08:55:08;100383.72;;;0.27;59.57
55932;BME280;41837;55.700;37.984;2022-11-15T08:57:53;100375.00;;;0.13;60.20
55932;BME280;41837;55.700;37.984;2022-11-15T09:00:37;100392.47;;;-0.36;58.68
55932;BME280;41837;55.700;37.984;2022-11-15T09:03:23;100376.75;;;-0.61;59.88
55932;BME280;41837;55.700;37.984;2022-11-15T09:06:07;100379.56;;;-0.43;59.10
55932;BME280;41837;55.700;37.984;2022-11-15T09:08:53;100373.84;;;-0.18;59.30
55932;BME280;41837;55.700;37.984;2022-11-15T09:11:37;100372.06;;;-0.23;58.87
55932;BME280;41837;55.700;37.984;2022-11-15T09:14:22;100367.38;;;0.21;59.48
55932;BME280;41837;55.700;37.984;2022-11-15T09:17:08;100370.25;;;0.59;59.60
55932;BME280;41837;55.700;37.984;2022-11-15T09:19:54;100366.00;;;0.60;59.14
55932;BME280;41837;55.700;37.984;2022-11-15T09:22:38;100356.06;;;0.00;58.76
55932;BME280;41837;55.700;37.984;2022-11-15T09:25:23;100366.69;;;0.40;60.91
55932;BME280;41837;55.700;37.984;2022-11-15T09:28:08;100353.91;;;0.49;57.77
55932;BME280;41837;55.700;37.984;2022-11-15T09:31:04;100370.00;;;0.27;58.26
55932;BME280;41837;55.700;37.984;2022-11-15T09:33:50;100361.56;;;0.43;58.67
55932;BME280;41837;55.700;37.984;2022-11-15T09:36:35;100349.75;;;0.67;58.01
55932;BME280;41837;55.700;37.984;2022-11-15T09:39:21;100353.34;;;-0.12;57.93
55932;BME280;41837;55.700;37.984;2022-11-15T09:42:44;100357.09;;;0.21;59.01
55932;BME280;41837;55.700;37.984;2022-11-15T09:45:42;100355.53;;;0.38;57.38
55932;BME280;41837;55.700;37.984;2022-11-15T09:51:40;100347.94;;;0.53;57.98
55932;BME280;41837;55.700;37.984;2022-11-15T09:54:38;100346.19;;;0.51;58.78
55932;BME280;41837;55.700;37.984;2022-11-15T10:00:19;100342.56;;;0.26;57.34
55932;BME280;41837;55.700;37.984;2022-11-15T10:02:52;100344.41;;;0.42;57.60
55932;BME280;41837;55.700;37.984;2022-11-15T10:05:24;100340.91;;;0.31;59.65
55932;BME280;41837;55.700;37.984;2022-11-15T10:10:43;100324.22;;;-0.13;58.12
55932;BME280;41837;55.700;37.984;2022-11-15T10:13:16;100325.22;;;0.03;59.12
55932;BME280;41837;55.700;37.984;2022-11-15T10:15:43;100321.22;;;0.34;58.56
55932;BME280;41837;55.700;37.984;2022-11-15T10:18:18;100331.53;;;0.39;57.96
55932;BME280;41837;55.700;37.984;2022-11-15T10:20:58;100318.47;;;0.14;57.02
55932;BME280;41837;55.700;37.984;2022-11-15T10:23:24;100316.81;;;0.21;58.93
55932;BME280;41837;55.700;37.984;2022-11-15T10:26:00;100307.03;;;-0.18;58.59
55932;BME280;41837;55.700;37.984;2022-11-15T10:28:30;100302.34;;;0.32;59.93
55932;BME280;41837;55.700;37.984;2022-11-15T10:30:59;100297.97;;;0.22;57.59
55932;BME280;41837;55.700;37.984;2022-11-15T10:33:33;100291.03;;;0.10;58.68
55932;BME280;41837;55.700;37.984;2022-11-15T10:36:22;100274.81;;;0.24;59.09
55932;BME280;41837;55.700;37.984;2022-11-15T10:41:17;100279.44;;;-0.38;59.24
55932;BME280;41837;55.700;37.984;2022-11-15T10:43:45;100281.13;;;-0.40;60.25
55932;BME280;41837;55.700;37.984;2022-11-15T10:46:27;100275.50;;;-0.01;59.53
55932;BME280;41837;55.700;37.984;2022-11-15T10:49:15;100271.97;;;-0.13;60.12
55932;BME280;41837;55.700;37.984;2022-11-15T10:55:01;100264.00;;;-0.40;59.79
55932;BME280;41837;55.700;37.984;2022-11-15T10:57:31;100271.06;;;-0.20;60.12
55932;BME280;41837;55.700;37.984;2022-11-15T11:03:03;100264.41;;;0.07;61.15
55932;BME280;41837;55.700;37.984;2022-11-15T11:10:58;100260.19;;;0.10;59.42
55932;BME280;41837;55.700;37.984;2022-11-15T11:24:59;100237.66;;;-0.15;60.13
55932;BME280;41837;55.700;37.984;2022-11-15T11:27:57;100232.53;;;-0.15;60.30
55932;BME280;41837;55.700;37.984;2022-11-15T11:33:13;100228.28;;;-0.10;59.52
55932;BME280;41837;55.700;37.984;2022-11-15T11:35:49;100227.31;;;-0.25;60.13
55932;BME280;41837;55.700;37.984;2022-11-15T11:43:36;100224.66;;;-0.37;59.92
55932;BME280;41837;55.700;37.984;2022-11-15T11:49:06;100216.19;;;-0.22;60.37
55932;BME280;41837;55.700;37.984;2022-11-15T11:51:40;100216.81;;;-0.52;60.48
55932;BME280;41837;55.700;37.984;2022-11-15T11:54:22;100215.81;;;-0.65;61.96
55932;BME280;41837;55.700;37.984;2022-11-15T11:56:50;100212.28;;;-0.75;61.77
55932;BME280;41837;55.700;37.984;2022-11-15T11:59:31;100205.69;;;-0.50;62.25
55932;BME280;41837;55.700;37.984;2022-11-15T12:02:12;100203.34;;;-0.27;64.06
55932;BME280;41837;55.700;37.984;2022-11-15T12:04:44;100205.88;;;-0.28;63.02
55932;BME280;41837;55.700;37.984;2022-11-15T12:07:21;100190.34;;;-0.42;63.58
55932;BME280;41837;55.700;37.984;2022-11-15T12:09:58;100203.09;;;-0.51;64.25
55932;BME280;41837;55.700;37.984;2022-11-15T12:12:49;100201.53;;;-0.32;66.94
55932;BME280;41837;55.700;37.984;2022-11-15T12:15:26;100204.75;;;-0.57;65.39
55932;BME280;41837;55.700;37.984;2022-11-15T12:17:55;100206.50;;;-0.55;67.42
55932;BME280;41837;55.700;37.984;2022-11-15T12:20:25;100201.34;;;-0.57;68.66
55932;BME280;41837;55.700;37.984;2022-11-15T12:28:37;100188.06;;;-0.99;73.11
55932;BME280;41837;55.700;37.984;2022-11-15T12:31:39;100191.03;;;-1.38;75.90
55932;BME280;41837;55.700;37.984;2022-11-15T12:36:46;100193.38;;;-1.55;80.35
55932;BME280;41837;55.700;37.984;2022-11-15T12:39:14;100191.88;;;-1.41;81.84
55932;BME280;41837;55.700;37.984;2022-11-15T12:59:51;100179.81;;;-2.09;97.63
55932;BME280;41837;55.700;37.984;2022-11-15T13:13:01;100159.78;;;-2.35;100.00
55932;BME280;41837;55.700;37.984;2022-11-15T13:18:39;100152.31;;;-2.19;100.00
55932;BME280;41837;55.700;37.984;2022-11-15T13:21:24;100152.13;;;-2.33;100.00
55932;BME280;41837;55.700;37.984;2022-11-15T13:24:14;100148.94;;;-2.18;100.00
55932;BME280;41837;55.700;37.984;2022-11-15T13:26:42;100145.25;;;-2.34;100.00
55932;BME280;41837;55.700;37.984;2022-11-15T13:29:16;100142.84;;;-2.27;100.00
55932;BME280;41837;55.700;37.984;2022-11-15T13:31:43;100141.34;;;-2.14;100.00
55932;BME280;41837;55.700;37.984;2022-11-15T13:34:26;100142.69;;;-2.37;100.00
55932;BME280;41837;55.700;37.984;2022-11-15T13:36:52;100149.00;;;-2.12;100.00
55932;BME280;41837;55.700;37.984;2022-11-15T13:39:32;100150.66;;;-2.17;100.00
55932;BME280;41837;55.700;37.984;2022-11-15T13:42:00;100131.94;;;-2.13;100.00
55932;BME280;41837;55.700;37.984;2022-11-15T13:44:31;100132.19;;;-1.96;100.00
55932;BME280;41837;55.700;37.984;2022-11-15T13:47:14;100130.63;;;-2.43;100.00
55932;BME280;41837;55.700;37.984;2022-11-15T13:49:41;100128.09;;;-2.41;100.00
55932;BME280;41837;55.700;37.984;2022-11-15T13:52:14;100118.81;;;-2.35;100.00
55932;BME280;41837;55.700;37.984;2022-11-15T13:54:43;100122.19;;;-2.37;100.00
55932;BME280;41837;55.700;37.984;2022-11-15T13:59:53;100123.94;;;-2.33;100.00
55932;BME280;41837;55.700;37.984;2022-11-15T14:02:31;100120.59;;;-2.29;100.00
55932;BME280;41837;55.700;37.984;2022-11-15T14:05:15;100128.50;;;-2.15;100.00
55932;BME280;41837;55.700;37.984;2022-11-15T14:08:00;100119.00;;;-2.21;100.00
55932;BME280;41837;55.700;37.984;2022-11-15T14:10:28;100118.69;;;-2.44;100.00
55932;BME280;41837;55.700;37.984;2022-11-15T14:12:55;100120.50;;;-2.35;100.00
55932;BME280;41837;55.700;37.984;2022-11-15T14:15:36;100122.47;;;-2.19;100.00
55932;BME280;41837;55.700;37.984;2022-11-15T14:18:04;100113.69;;;-2.35;100.00
55932;BME280;41837;55.700;37.984;2022-11-15T14:20:38;100110.38;;;-2.28;100.00
55932;BME280;41837;55.700;37.984;2022-11-15T14:23:24;100118.84;;;-2.33;100.00
55932;BME280;41837;55.700;37.984;2022-11-15T14:25:56;100109.59;;;-2.23;100.00
55932;BME280;41837;55.700;37.984;2022-11-15T14:30:50;100105.56;;;-2.64;100.00
55932;BME280;41837;55.700;37.984;2022-11-15T14:33:23;100104.13;;;-2.47;100.00
55932;BME280;41837;55.700;37.984;2022-11-15T14:35:52;100105.22;;;-2.31;100.00
55932;BME280;41837;55.700;37.984;2022-11-15T14:38:18;100096.63;;;-2.34;100.00
55932;BME280;41837;55.700;37.984;2022-11-15T14:40:44;100097.28;;;-2.48;100.00
55932;BME280;41837;55.700;37.984;2022-11-15T14:43:11;100095.16;;;-2.73;100.00
55932;BME280;41837;55.700;37.984;2022-11-15T14:45:38;100092.78;;;-2.63;100.00
55932;BME280;41837;55.700;37.984;2022-11-15T14:48:04;100084.72;;;-2.32;100.00
55932;BME280;41837;55.700;37.984;2022-11-15T14:50:32;100083.41;;;-2.62;100.00
55932;BME280;41837;55.700;37.984;2022-11-15T14:52:59;100089.75;;;-2.37;100.00
55932;BME280;41837;55.700;37.984;2022-11-15T14:55:30;100081.06;;;-2.47;100.00
55932;BME280;41837;55.700;37.984;2022-11-15T14:57:58;100079.38;;;-2.46;100.00
55932;BME280;41837;55.700;37.984;2022-11-15T15:00:25;100082.81;;;-2.46;100.00
55932;BME280;41837;55.700;37.984;2022-11-15T15:02:53;100080.16;;;-2.50;100.00
55932;BME280;41837;55.700;37.984;2022-11-15T15:05:25;100072.63;;;-2.42;100.00
55932;BME280;41837;55.700;37.984;2022-11-15T15:07:52;100070.50;;;-2.68;100.00
55932;BME280;41837;55.700;37.984;2022-11-15T15:10:19;100067.16;;;-2.64;100.00
55932;BME280;41837;55.700;37.984;2022-11-15T15:12:46;100062.38;;;-2.42;100.00
55932;BME280;41837;55.700;37.984;2022-11-15T15:15:16;100060.03;;;-2.27;100.00
55932;BME280;41837;55.700;37.984;2022-11-15T15:17:43;100052.72;;;-1.99;100.00
55932;BME280;41837;55.700;37.984;2022-11-15T15:20:10;100057.88;;;-1.96;100.00
55932;BME280;41837;55.700;37.984;2022-11-15T15:22:37;100056.28;;;-1.88;100.00
55932;BME280;41837;55.700;37.984;2022-11-15T15:25:20;100049.81;;;-2.26;100.00
55932;BME280;41837;55.700;37.984;2022-11-15T15:27:47;100063.28;;;-2.39;100.00
55932;BME280;41837;55.700;37.984;2022-11-15T15:30:13;100054.81;;;-2.33;100.00
55932;BME280;41837;55.700;37.984;2022-11-15T15:32:40;100054.16;;;-2.20;100.00
55932;BME280;41837;55.700;37.984;2022-11-15T15:35:07;100046.28;;;-2.34;100.00
55932;BME280;41837;55.700;37.984;2022-11-15T15:37:37;100043.69;;;-2.35;100.00
55932;BME280;41837;55.700;37.984;2022-11-15T15:40:03;100038.53;;;-2.38;100.00
55932;BME280;41837;55.700;37.984;2022-11-15T15:42:29;100036.41;;;-2.67;100.00
55932;BME280;41837;55.700;37.984;2022-11-15T15:44:55;100043.50;;;-2.49;100.00
55932;BME280;41837;55.700;37.984;2022-11-15T15:47:22;100042.09;;;-2.29;100.00
55932;BME280;41837;55.700;37.984;2022-11-15T15:49:49;100028.44;;;-2.26;100.00
55932;BME280;41837;55.700;37.984;2022-11-15T15:52:16;100017.78;;;-2.57;100.00